createdAt,value
2023-02-16T00:01:28.216Z,-0.20
2023-02-16T00:03:57.487Z,-0.10
2023-02-16T00:06:26.205Z,-0.40
2023-02-16T00:08:55.719Z,0.00
2023-02-16T00:11:47.021Z,-0.10
2023-02-16T00:14:15.988Z,0.20
2023-02-16T00:16:45.495Z,-0.10
2023-02-16T00:19:22.722Z,0.30
2023-02-16T00:21:52.876Z,0.30
2023-02-16T00:24:22.696Z,0.00
2023-02-16T00:26:50.947Z,-0.20
2023-02-16T00:29:23.901Z,0.20
2023-02-16T00:31:54.496Z,0.10
2023-02-16T00:34:34.381Z,0.00
2023-02-16T00:37:04.368Z,0.00
2023-02-16T00:39:32.976Z,-0.10
2023-02-16T00:42:03.925Z,-0.30
2023-02-16T00:44:35.886Z,-0.30
2023-02-16T00:47:20.458Z,-0.20
2023-02-16T00:49:49.639Z,0.10
2023-02-16T00:52:32.195Z,-0.30
2023-02-16T00:55:01.989Z,-0.20
2023-02-16T00:57:34.088Z,-0.30
2023-02-16T01:00:06.437Z,-0.30
2023-02-16T01:02:36.133Z,-0.10
2023-02-16T01:05:04.636Z,-0.10
2023-02-16T01:07:50.081Z,-0.50
2023-02-16T01:10:36.578Z,-0.40
2023-02-16T01:13:04.810Z,-0.20
2023-02-16T01:15:34.631Z,-0.40
2023-02-16T01:18:04.171Z,-0.20
2023-02-16T01:20:35.376Z,-0.20
2023-02-16T01:23:04.278Z,-0.50
2023-02-16T01:25:33.790Z,-0.30
2023-02-16T01:28:02.070Z,-0.60
2023-02-16T01:30:30.325Z,-0.40
2023-02-16T01:32:58.548Z,-0.40
2023-02-16T01:35:34.201Z,-0.40
2023-02-16T01:38:02.359Z,-0.40
2023-02-16T01:40:39.314Z,-0.60
2023-02-16T01:43:19.676Z,-0.50
2023-02-16T01:45:52.500Z,-0.60
2023-02-16T01:48:25.914Z,-0.70
2023-02-16T01:51:00.300Z,-0.40
2023-02-16T01:53:34.758Z,-0.80
2023-02-16T01:56:07.000Z,-0.30
2023-02-16T01:58:44.505Z,-0.30
2023-02-16T02:01:38.931Z,-0.50
2023-02-16T02:04:38.725Z,-0.70
2023-02-16T02:07:09.972Z,-0.70
2023-02-16T02:09:44.191Z,-0.80
2023-02-16T02:12:24.462Z,-0.80
2023-02-16T02:14:52.950Z,-0.80
2023-02-16T02:17:22.905Z,-0.60
2023-02-16T02:19:58.820Z,-0.70
2023-02-16T02:23:14.081Z,-0.50
2023-02-16T02:26:24.860Z,-0.50
2023-02-16T02:29:02.922Z,-0.70
2023-02-16T02:31:41.192Z,-0.70
2023-02-16T02:34:18.792Z,-0.40
2023-02-16T02:36:52.042Z,-0.60
2023-02-16T02:39:31.472Z,-0.90
2023-02-16T02:42:10.450Z,-0.70
2023-02-16T02:44:51.157Z,-0.90
2023-02-16T02:47:19.697Z,-0.90
2023-02-16T02:49:52.497Z,-0.90
2023-02-16T02:52:21.586Z,-0.90
2023-02-16T02:55:20.289Z,-1.10
2023-02-16T02:58:08.527Z,-0.70
2023-02-16T03:00:43.902Z,-0.50
2023-02-16T03:03:17.150Z,-0.90
2023-02-16T03:05:49.079Z,-0.90
2023-02-16T03:08:21.840Z,-0.90
2023-02-16T03:11:09.908Z,-1.00
2023-02-16T03:13:40.444Z,-0.80
2023-02-16T03:16:14.331Z,-0.80
2023-02-16T03:19:02.588Z,-0.90
2023-02-16T03:21:48.302Z,-1.10
2023-02-16T03:24:40.782Z,-1.10
2023-02-16T03:27:27.492Z,-1.10
2023-02-16T03:29:58.028Z,-1.20
2023-02-16T04:00:02.227Z,-1.10
2023-02-16T04:02:30.900Z,-0.90
2023-02-16T04:05:00.403Z,-1.30
2023-02-16T04:07:30.736Z,-1.10
2023-02-16T04:09:59.795Z,-0.90
2023-02-16T04:12:38.995Z,-1.20
2023-02-16T04:15:09.365Z,-1.10
2023-02-16T04:17:37.787Z,-1.10
2023-02-16T04:20:09.446Z,-0.90
2023-02-16T04:22:37.649Z,-0.80
2023-02-16T04:25:06.915Z,-1.00
2023-02-16T04:27:35.447Z,-1.00
2023-02-16T04:30:04.954Z,-1.00
2023-02-16T04:32:33.255Z,-1.00
2023-02-16T04:35:01.449Z,-1.10
2023-02-16T04:37:31.053Z,-1.00
2023-02-16T04:39:59.195Z,-1.10
2023-02-16T04:42:27.448Z,-1.10
2023-02-16T04:44:55.584Z,-1.00
2023-02-16T04:47:25.902Z,-1.20
2023-02-16T04:49:54.425Z,-1.00
2023-02-16T04:52:22.553Z,-1.10
2023-02-16T04:54:52.273Z,-1.20
2023-02-16T04:57:21.403Z,-1.20
2023-02-16T04:59:49.820Z,-1.40
2023-02-16T05:02:18.174Z,-1.40
2023-02-16T05:04:46.343Z,-1.40
2023-02-16T05:07:14.522Z,-1.40
2023-02-16T05:09:42.610Z,-1.10
2023-02-16T05:12:30.419Z,-1.10
2023-02-16T05:14:58.689Z,-1.20
2023-02-16T05:17:28.228Z,-1.20
2023-02-16T05:19:58.609Z,-0.80
2023-02-16T05:22:28.646Z,-1.00
2023-02-16T05:24:56.825Z,-1.00
2023-02-16T05:27:27.840Z,-1.00
2023-02-16T05:29:56.206Z,-0.80
2023-02-16T05:32:24.478Z,-0.90
2023-02-16T05:34:52.749Z,-0.90
2023-02-16T05:37:23.647Z,-1.20
2023-02-16T05:39:53.842Z,-0.90
2023-02-16T05:42:21.920Z,-1.00
2023-02-16T05:44:51.388Z,-0.90
2023-02-16T05:47:19.754Z,-0.70
2023-02-16T05:49:47.988Z,-1.00
2023-02-16T05:52:16.148Z,-0.90
2023-02-16T05:54:44.461Z,-0.80
2023-02-16T05:57:12.528Z,-0.80
2023-02-16T05:59:40.618Z,-0.90
2023-02-16T06:02:10.691Z,-1.00
2023-02-16T06:04:38.814Z,-0.70
2023-02-16T06:07:06.929Z,-1.00
2023-02-16T06:09:35.322Z,-0.90
2023-02-16T06:12:03.684Z,-0.80
2023-02-16T06:14:31.811Z,-0.60
2023-02-16T06:17:01.466Z,-1.00
2023-02-16T06:19:31.038Z,-0.70
2023-02-16T06:21:59.054Z,-0.80
2023-02-16T06:24:27.480Z,-0.80
2023-02-16T06:26:55.631Z,-1.00
2023-02-16T06:29:23.959Z,-1.20
2023-02-16T06:31:52.246Z,-0.80
2023-02-16T06:34:20.603Z,-0.80
2023-02-16T06:36:50.105Z,-0.60
2023-02-16T06:39:18.533Z,-0.70
2023-02-16T06:41:46.722Z,-0.70
2023-02-16T06:44:17.621Z,-0.90
2023-02-16T06:46:47.791Z,-0.70
2023-02-16T06:49:19.160Z,-0.60
2023-02-16T06:51:50.660Z,-0.80
2023-02-16T06:54:20.356Z,-0.60
2023-02-16T06:56:48.547Z,-0.30
2023-02-16T06:59:16.736Z,-0.50
2023-02-16T07:01:45.425Z,-0.50
2023-02-16T07:04:14.230Z,-0.50
2023-02-16T07:06:42.838Z,-0.30
2023-02-16T07:09:13.043Z,-0.40
2023-02-16T07:11:41.361Z,-0.20
2023-02-16T07:14:09.731Z,-0.10
2023-02-16T07:16:38.225Z,0.20
2023-02-16T07:19:07.042Z,0.10
2023-02-16T07:21:35.371Z,0.30
2023-02-16T07:24:03.776Z,0.30
2023-02-16T07:26:33.623Z,0.60
2023-02-16T07:29:01.805Z,0.70
2023-02-16T07:43:53.848Z,1.00
2023-02-16T07:46:22.021Z,3.80
2023-02-16T07:48:50.632Z,4.00
2023-02-16T07:51:23.635Z,4.10
2023-02-16T07:53:52.068Z,3.90
2023-02-16T07:56:21.949Z,4.40
2023-02-16T07:58:52.251Z,4.50
2023-02-16T08:01:22.720Z,4.40
2023-02-16T08:03:51.618Z,4.60
2023-02-16T08:06:20.749Z,4.10
2023-02-16T08:08:49.738Z,4.00
2023-02-16T08:11:20.228Z,3.90
2023-02-16T08:13:48.889Z,4.00
2023-02-16T08:16:21.690Z,4.10
